Time;durP1;ratioP1;P1;durP2;ratioP2;P2;SDS_P1;SDS_P2;PMS_P1;PMS_P2;Temp;Humidity;BMP_temperature;BMP_pressure;BME280_temperature;BME280_humidity;BME280_pressure;Samples;Min_cycle;Max_cycle;Signal;HPM_P1;HPM_P2
2023/10/24 00:01:04;;;;;;;6.18;5.13;;;;;13.70;97559.00;;;;5033035;28;20410;-64
2023/10/24 00:03:30;;;;;;;7.80;6.07;;;;;13.80;97560.00;;;;5032209;28;20294;-65
2023/10/24 00:05:57;;;;;;;8.68;6.68;;;;;13.70;97563.00;;;;5032731;28;20491;-64
2023/10/24 00:08:24;;;;;;;8.93;5.80;;;;;13.70;97574.00;;;;5031414;28;20077;-64
2023/10/24 00:11:02;;;;;;;7.07;5.63;;;;;13.70;97571.00;;;;5031357;28;20050;-64
2023/10/24 00:13:29;;;;;;;8.25;6.00;;;;;13.80;97566.00;;;;5030994;28;20383;-64
2023/10/24 00:15:59;;;;;;;6.72;5.68;;;;;13.80;97569.00;;;;5031174;28;20072;-64
2023/10/24 00:18:27;;;;;;;8.20;5.80;;;;;13.80;97558.00;;;;5032446;28;20453;-64
2023/10/24 00:20:54;;;;;;;8.93;5.90;;;;;13.80;97558.00;;;;5032483;28;20099;-64
2023/10/24 00:23:21;;;;;;;9.20;6.43;;;;;13.80;97559.00;;;;5031122;28;20057;-65
2023/10/24 00:25:47;;;;;;;11.55;7.00;;;;;13.90;97565.00;;;;5030572;28;20076;-65
2023/10/24 00:28:14;;;;;;;9.85;6.15;;;;;13.90;97565.00;;;;5032273;28;20418;-65
2023/10/24 00:30:41;;;;;;;10.73;6.38;;;;;13.90;97570.00;;;;5030980;28;20041;-65
2023/10/24 00:33:07;;;;;;;11.10;6.57;;;;;13.90;97550.00;;;;5031023;28;20045;-64
2023/10/24 00:35:34;;;;;;;8.88;6.22;;;;;14.00;97562.00;;;;5031699;28;20041;-65
2023/10/24 00:38:01;;;;;;;7.25;6.55;;;;;14.00;97552.00;;;;5032183;28;20083;-64
2023/10/24 00:40:27;;;;;;;8.80;6.55;;;;;14.00;97541.00;;;;5032001;28;20092;-65
2023/10/24 00:43:01;;;;;;;8.27;6.45;;;;;14.00;97545.00;;;;5030796;28;20045;-65
2023/10/24 00:45:28;;;;;;;11.52;6.65;;;;;14.00;97553.00;;;;5030571;28;20439;-65
2023/10/24 00:47:54;;;;;;;8.13;6.38;;;;;14.00;97545.00;;;;5032037;28;20447;-65
2023/10/24 00:50:21;;;;;;;7.70;6.20;;;;;14.00;97533.00;;;;5030724;28;20116;-64
2023/10/24 00:52:48;;;;;;;7.93;6.60;;;;;14.00;97527.00;;;;5032141;28;20427;-64
2023/10/24 00:55:15;;;;;;;8.52;6.25;;;;;14.00;97538.00;;;;5030472;28;20450;-65
2023/10/24 00:57:42;;;;;;;8.75;6.10;;;;;14.00;97551.00;;;;5030749;28;20046;-64
2023/10/24 01:00:10;;;;;;;9.65;5.63;;;;;14.00;97548.00;;;;5030797;28;20041;-64
2023/10/24 01:02:37;;;;;;;8.05;5.72;;;;;14.10;97546.00;;;;5031108;28;20445;-64
2023/10/24 01:05:04;;;;;;;8.35;5.53;;;;;14.10;97541.00;;;;5033659;28;20530;-64
2023/10/24 01:07:32;;;;;;;10.73;5.53;;;;;14.00;97535.00;;;;5035941;28;20449;-64
2023/10/24 01:09:58;;;;;;;6.32;5.63;;;;;14.10;97539.00;;;;5035942;28;20034;-64
2023/10/24 01:12:26;;;;;;;7.82;5.55;;;;;14.10;97536.00;;;;5036163;28;20049;-64
2023/10/24 01:14:54;;;;;;;9.85;5.07;;;;;14.10;97530.00;;;;5034284;28;20057;-63
2023/10/24 01:17:20;;;;;;;6.65;4.65;;;;;14.10;97524.00;;;;5034500;28;20045;-65
2023/10/24 01:19:47;;;;;;;10.50;5.00;;;;;14.10;97529.00;;;;5018384;28;20049;-64
2023/10/24 01:22:14;;;;;;;6.68;4.57;;;;;14.10;97530.00;;;;5035313;28;20490;-64
2023/10/24 01:24:41;;;;;;;9.73;5.07;;;;;14.20;97529.00;;;;5034349;28;20049;-63
2023/10/24 01:27:08;;;;;;;4.88;4.22;;;;;14.20;97504.00;;;;5036129;28;20099;-64
2023/10/24 01:29:35;;;;;;;10.50;4.50;;;;;14.30;97515.00;;;;5035749;28;20049;-65
2023/10/24 01:32:02;;;;;;;10.45;4.38;;;;;14.30;97514.00;;;;5044588;28;20123;-65
2023/10/24 01:34:29;;;;;;;7.38;4.57;;;;;14.30;97525.00;;;;5046341;28;20033;-65
2023/10/24 01:36:56;;;;;;;9.02;4.40;;;;;14.30;97510.00;;;;5028076;28;20405;-65
2023/10/24 01:39:23;;;;;;;5.65;3.70;;;;;14.40;97501.00;;;;5047005;28;20109;-66
2023/10/24 01:41:50;;;;;;;6.95;3.55;;;;;14.40;97511.00;;;;5052330;28;20055;-65
2023/10/24 01:44:16;;;;;;;8.63;4.28;;;;;14.40;97502.00;;;;5050121;28;20072;-65
2023/10/24 01:46:43;;;;;;;7.00;4.32;;;;;14.40;97505.00;;;;5049114;28;20045;-65
2023/10/24 01:49:10;;;;;;;6.47;2.95;;;;;14.40;97492.00;;;;5031536;28;20068;-65
2023/10/24 01:51:38;;;;;;;6.13;3.67;;;;;14.40;97489.00;;;;5040193;28;20055;-65
2023/10/24 01:54:05;;;;;;;7.90;3.45;;;;;14.40;97466.00;;;;5041146;28;20049;-65
2023/10/24 01:56:31;;;;;;;10.98;3.83;;;;;14.40;97459.00;;;;5041473;28;20546;-65
2023/10/24 01:58:59;;;;;;;5.32;3.67;;;;;14.30;97491.00;;;;5041226;28;20041;-65
2023/10/24 02:01:25;;;;;;;5.07;3.45;;;;;14.30;97480.00;;;;5049420;28;20046;-65
2023/10/24 02:03:54;;;;;;;6.18;3.25;;;;;14.40;97496.00;;;;5051483;28;20050;-65
2023/10/24 02:06:21;;;;;;;5.28;3.28;;;;;14.40;97497.00;;;;5051953;28;20042;-65
2023/10/24 02:08:47;;;;;;;8.32;4.22;;;;;14.40;97511.00;;;;5052599;28;20054;-64
2023/10/24 02:11:14;;;;;;;5.47;3.80;;;;;14.40;97505.00;;;;5050980;28;20083;-65
2023/10/24 02:13:41;;;;;;;3.55;2.90;;;;;14.50;97509.00;;;;5049552;28;20045;-65
2023/10/24 02:16:08;;;;;;;5.57;2.90;;;;;14.50;97511.00;;;;5052335;28;20042;-65
2023/10/24 02:18:34;;;;;;;6.68;3.28;;;;;14.50;97502.00;;;;5054366;28;20044;-65
2023/10/24 02:21:08;;;;;;;10.80;3.63;;;;;14.50;97516.00;;;;5055189;28;20046;-64
2023/10/24 02:23:37;;;;;;;5.18;3.03;;;;;14.50;97524.00;;;;5054815;28;20045;-65
2023/10/24 02:26:19;;;;;;;4.78;2.67;;;;;14.50;97523.00;;;;5024336;28;20054;-64
2023/10/24 02:28:45;;;;;;;6.32;3.00;;;;;14.40;97526.00;;;;5021859;28;20057;-65
2023/10/24 02:31:12;;;;;;;8.20;3.17;;;;;14.40;97533.00;;;;5039409;28;20048;-65
2023/10/24 02:33:39;;;;;;;5.82;3.10;;;;;14.40;97527.00;;;;5038100;28;20034;-65
2023/10/24 02:36:10;;;;;;;6.03;2.92;;;;;14.40;97525.00;;;;5038018;28;20053;-65
2023/10/24 02:38:37;;;;;;;4.07;2.90;;;;;14.40;97527.00;;;;5037900;28;20064;-66
2023/10/24 02:41:04;;;;;;;8.13;3.13;;;;;14.40;97539.00;;;;5039607;28;20104;-65
2023/10/24 02:43:31;;;;;;;5.10;2.83;;;;;14.40;97525.00;;;;5044065;28;20041;-66
2023/10/24 02:46:01;;;;;;;5.68;3.25;;;;;14.40;97527.00;;;;5045039;28;20045;-65
2023/10/24 02:48:28;;;;;;;5.72;3.15;;;;;14.40;97524.00;;;;5043879;28;20054;-65
2023/10/24 02:50:55;;;;;;;7.97;2.97;;;;;14.40;97516.00;;;;5043922;28;20038;-65
2023/10/24 02:53:23;;;;;;;9.50;3.50;;;;;14.50;97512.00;;;;5026507;28;20095;-65
2023/10/24 02:55:50;;;;;;;6.38;3.40;;;;;14.50;97522.00;;;;5036741;28;20049;-65
2023/10/24 02:58:18;;;;;;;8.02;3.03;;;;;14.50;97516.00;;;;5018096;28;20510;-65
2023/10/24 03:00:45;;;;;;;6.65;3.03;;;;;14.50;97514.00;;;;5018357;28;20513;-63
2023/10/24 03:03:12;;;;;;;4.82;3.15;;;;;14.50;97509.00;;;;5034231;28;20079;-64
2023/10/24 03:05:40;;;;;;;7.28;3.28;;;;;14.50;97519.00;;;;5034055;28;20498;-65
2023/10/24 03:08:07;;;;;;;7.05;3.50;;;;;14.50;97533.00;;;;5035074;28;20046;-65
2023/10/24 03:10:40;;;;;;;5.90;3.00;;;;;14.60;97537.00;;;;5034896;28;20046;-65
2023/10/24 03:13:07;;;;;;;5.28;2.60;;;;;14.50;97545.00;;;;5017949;28;20042;-65
2023/10/24 03:15:34;;;;;;;5.65;3.03;;;;;14.50;97530.00;;;;5016936;28;20050;-65
2023/10/24 03:18:01;;;;;;;4.32;2.17;;;;;14.40;97526.00;;;;5033728;28;20486;-66
2023/10/24 03:20:28;;;;;;;5.03;2.72;;;;;14.40;97531.00;;;;5035414;28;20069;-63
2023/10/24 03:22:55;;;;;;;3.72;2.53;;;;;14.40;97530.00;;;;5022935;28;20042;-64
2023/10/24 03:25:24;;;;;;;6.15;2.83;;;;;14.40;97530.00;;;;5038873;28;20485;-65
2023/10/24 03:27:54;;;;;;;5.70;3.15;;;;;14.50;97519.00;;;;5039575;28;20053;-64
2023/10/24 03:30:21;;;;;;;9.30;2.90;;;;;14.40;97516.00;;;;5046503;28;20071;-64
2023/10/24 03:32:48;;;;;;;6.97;2.85;;;;;14.40;97522.00;;;;5046224;28;20140;-64
2023/10/24 03:35:15;;;;;;;4.38;2.42;;;;;14.40;97523.00;;;;5044688;28;20050;-64
2023/10/24 03:37:42;;;;;;;5.72;2.75;;;;;14.40;97532.00;;;;5011530;28;20117;-64
2023/10/24 03:40:09;;;;;;;3.88;2.60;;;;;14.40;97523.00;;;;5045213;28;20064;-64
2023/10/24 03:42:37;;;;;;;6.57;3.30;;;;;14.40;97510.00;;;;5037926;28;20044;-64
2023/10/24 03:45:05;;;;;;;4.90;3.00;;;;;14.40;97526.00;;;;5032804;28;20045;-66
2023/10/24 03:47:31;;;;;;;6.75;3.55;;;;;14.40;97533.00;;;;5035406;28;20072;-65
2023/10/24 03:49:58;;;;;;;7.97;3.65;;;;;14.40;97530.00;;;;5015975;28;20065;-65
2023/10/24 03:52:25;;;;;;;6.75;3.97;;;;;14.40;97522.00;;;;5032842;28;20387;-64
2023/10/24 03:54:52;;;;;;;6.50;3.53;;;;;14.40;97522.00;;;;5033762;28;20498;-65
2023/10/24 03:57:19;;;;;;;4.90;3.08;;;;;14.40;97517.00;;;;5034339;28;20045;-65
2023/10/24 03:59:47;;;;;;;3.97;3.00;;;;;14.40;97513.00;;;;5033657;28;20127;-65
2023/10/24 04:02:13;;;;;;;5.97;3.70;;;;;14.40;97516.00;;;;5032867;28;20041;-65
2023/10/24 04:04:40;;;;;;;8.13;3.25;;;;;14.40;97515.00;;;;5031349;28;20479;-63
2023/10/24 04:07:07;;;;;;;9.07;3.05;;;;;14.40;97520.00;;;;5032867;28;20041;-64
2023/10/24 04:09:34;;;;;;;5.72;3.00;;;;;14.40;97528.00;;;;5032701;28;20045;-64
2023/10/24 04:12:06;;;;;;;4.97;3.30;;;;;14.40;97533.00;;;;5032748;28;20037;-64
2023/10/24 04:14:32;;;;;;;7.57;3.60;;;;;14.40;97527.00;;;;5032040;28;20099;-64
2023/10/24 04:16:59;;;;;;;4.28;3.30;;;;;14.30;97524.00;;;;5014899;28;20046;-63
2023/10/24 04:19:26;;;;;;;5.97;3.50;;;;;14.30;97526.00;;;;5032199;28;20076;-63
2023/10/24 04:21:53;;;;;;;6.38;4.18;;;;;14.30;97519.00;;;;5014836;28;20415;-64
2023/10/24 04:24:20;;;;;;;8.20;4.28;;;;;14.40;97522.00;;;;5030709;28;20676;-63
2023/10/24 04:26:46;;;;;;;7.78;4.53;;;;;14.40;97522.00;;;;5014885;28;20041;-63
2023/10/24 04:29:13;;;;;;;7.22;4.20;;;;;14.40;97519.00;;;;5032151;28;20041;-64
2023/10/24 04:31:39;;;;;;;9.02;5.57;;;;;14.50;97517.00;;;;5031153;28;20305;-64
2023/10/24 04:34:06;;;;;;;6.45;3.65;;;;;14.50;97514.00;;;;5030717;28;20133;-64
2023/10/24 04:36:33;;;;;;;5.15;3.40;;;;;14.50;97511.00;;;;5031418;28;20417;-64
2023/10/24 04:38:59;;;;;;;7.50;4.45;;;;;14.50;97500.00;;;;5029980;28;20069;-64
2023/10/24 04:41:26;;;;;;;6.40;4.60;;;;;14.50;97492.00;;;;5032311;28;20076;-64
2023/10/24 04:43:53;;;;;;;9.55;6.43;;;;;14.50;97489.00;;;;5031568;28;20115;-64
2023/10/24 04:46:20;;;;;;;7.43;5.30;;;;;14.60;97479.00;;;;5030692;28;20045;-65
2023/10/24 04:48:47;;;;;;;6.72;4.78;;;;;14.60;97471.00;;;;5031114;28;20056;-64
2023/10/24 04:51:13;;;;;;;7.82;4.85;;;;;14.50;97468.00;;;;5031939;28;20092;-64
2023/10/24 04:53:40;;;;;;;7.90;5.22;;;;;14.50;97472.00;;;;5014035;28;20149;-64
2023/10/24 04:56:07;;;;;;;8.05;5.40;;;;;14.50;97476.00;;;;5030891;28;20076;-64
2023/10/24 04:58:34;;;;;;;6.50;4.82;;;;;14.50;97469.00;;;;5030757;28;20053;-64
2023/10/24 05:01:00;;;;;;;7.65;5.13;;;;;14.60;97465.00;;;;5031273;28;20036;-65
2023/10/24 05:03:27;;;;;;;7.47;5.47;;;;;14.50;97480.00;;;;5031750;28;20045;-65
2023/10/24 05:05:54;;;;;;;7.95;4.53;;;;;14.50;97462.00;;;;5030606;28;20053;-65
2023/10/24 05:08:21;;;;;;;8.20;5.45;;;;;14.50;97458.00;;;;5030959;28;20049;-65
2023/10/24 05:10:49;;;;;;;6.00;4.68;;;;;14.60;97458.00;;;;5031863;28;20038;-65
2023/10/24 05:13:16;;;;;;;6.38;5.30;;;;;14.60;97455.00;;;;5030652;28;20099;-65
2023/10/24 05:15:45;;;;;;;7.88;4.40;;;;;14.60;97442.00;;;;5031599;28;20045;-65
2023/10/24 05:18:12;;;;;;;6.90;4.75;;;;;14.50;97441.00;;;;5031773;28;20454;-65
2023/10/24 05:20:39;;;;;;;8.65;6.18;;;;;14.30;97433.00;;;;5014275;28;20405;-65
2023/10/24 05:23:06;;;;;;;7.93;4.68;;;;;14.20;97432.00;;;;5014280;28;20140;-65
2023/10/24 05:25:33;;;;;;;6.00;4.55;;;;;14.20;97423.00;;;;5031273;28;20456;-65
2023/10/24 05:28:00;;;;;;;5.45;4.15;;;;;14.30;97442.00;;;;5030429;28;20073;-64
2023/10/24 05:30:26;;;;;;;6.28;4.20;;;;;14.30;97453.00;;;;5014239;28;20050;-65
2023/10/24 05:32:53;;;;;;;6.93;4.65;;;;;14.40;97453.00;;;;5031778;28;20095;-65
2023/10/24 05:35:20;;;;;;;6.57;5.25;;;;;14.40;97458.00;;;;5013502;28;20144;-65
2023/10/24 05:37:46;;;;;;;6.97;4.43;;;;;14.40;97471.00;;;;5030440;28;20049;-65
2023/10/24 05:40:13;;;;;;;10.20;5.38;;;;;14.50;97475.00;;;;5030541;28;20049;-65
2023/10/24 05:42:41;;;;;;;7.78;4.18;;;;;14.50;97484.00;;;;5014286;28;20500;-65
2023/10/24 05:45:08;;;;;;;10.75;6.07;;;;;14.50;97484.00;;;;5031325;28;20076;-65
2023/10/24 05:47:35;;;;;;;7.97;4.55;;;;;14.40;97489.00;;;;5033829;28;20059;-65
2023/10/24 05:50:02;;;;;;;7.70;4.10;;;;;14.50;97485.00;;;;5020037;28;20053;-66
2023/10/24 05:52:28;;;;;;;8.07;4.18;;;;;14.50;97483.00;;;;5038067;28;20037;-65
2023/10/24 05:54:58;;;;;;;6.15;4.90;;;;;14.50;97469.00;;;;5035471;28;20064;-65
2023/10/24 05:57:24;;;;;;;8.15;4.30;;;;;14.60;97474.00;;;;5035354;28;20064;-63
2023/10/24 05:59:51;;;;;;;4.55;3.20;;;;;14.60;97476.00;;;;5036827;28;20056;-63
2023/10/24 06:02:18;;;;;;;4.85;3.42;;;;;14.60;97489.00;;;;5035848;28;20065;-64
2023/10/24 06:04:44;;;;;;;3.50;3.20;;;;;14.60;97480.00;;;;5034659;28;20041;-64
2023/10/24 06:07:13;;;;;;;8.80;3.20;;;;;14.60;97475.00;;;;5035280;28;20041;-66
2023/10/24 06:09:40;;;;;;;4.90;2.70;;;;;14.60;97482.00;;;;5035615;28;20128;-66
2023/10/24 06:12:10;;;;;;;9.20;3.35;;;;;14.60;97481.00;;;;5034708;28;20096;-66
2023/10/24 06:14:36;;;;;;;6.13;3.30;;;;;14.60;97479.00;;;;5033220;28;20041;-64
2023/10/24 06:17:03;;;;;;;8.23;4.57;;;;;14.60;97473.00;;;;5034725;28;20053;-65
2023/10/24 06:19:31;;;;;;;8.80;4.38;;;;;14.50;97473.00;;;;5033511;28;20049;-65
2023/10/24 06:21:58;;;;;;;7.55;3.95;;;;;14.40;97476.00;;;;5033720;28;20038;-65
2023/10/24 06:24:25;;;;;;;8.27;4.72;;;;;14.30;97473.00;;;;5016827;28;20053;-65
2023/10/24 06:26:51;;;;;;;5.63;4.40;;;;;14.30;97482.00;;;;5035267;28;20116;-65
2023/10/24 06:29:18;;;;;;;6.90;4.05;;;;;14.30;97482.00;;;;5034779;28;20136;-65
2023/10/24 06:31:44;;;;;;;5.28;4.32;;;;;14.40;97475.00;;;;5034594;28;20041;-65
2023/10/24 06:34:11;;;;;;;7.85;4.55;;;;;14.40;97468.00;;;;5032884;28;20045;-65
2023/10/24 06:36:38;;;;;;;7.38;4.43;;;;;14.30;97484.00;;;;5033409;28;20565;-65
2023/10/24 06:39:04;;;;;;;6.05;3.67;;;;;14.30;97485.00;;;;5017279;28;20049;-65
2023/10/24 06:41:32;;;;;;;7.10;3.95;;;;;14.40;97474.00;;;;5050731;28;20060;-65
2023/10/24 06:43:59;;;;;;;5.88;4.13;;;;;14.30;97478.00;;;;5050329;28;20471;-65
2023/10/24 06:46:25;;;;;;;6.60;4.93;;;;;14.30;97474.00;;;;5051822;28;20045;-65
2023/10/24 06:48:52;;;;;;;5.78;4.38;;;;;14.20;97480.00;;;;5050167;28;20052;-65
2023/10/24 06:51:19;;;;;;;7.72;4.05;;;;;14.20;97468.00;;;;5049456;28;20072;-64
2023/10/24 06:53:46;;;;;;;5.47;3.75;;;;;14.20;97462.00;;;;5047794;28;20076;-65
2023/10/24 06:56:12;;;;;;;9.02;3.63;;;;;14.30;97470.00;;;;5046725;28;20488;-64
2023/10/24 06:58:40;;;;;;;6.03;3.97;;;;;14.40;97469.00;;;;5047100;28;20053;-64
2023/10/24 07:01:07;;;;;;;6.25;3.67;;;;;14.40;97477.00;;;;5049013;28;20050;-65
2023/10/24 07:03:34;;;;;;;9.77;3.97;;;;;14.30;97473.00;;;;5044418;28;20101;-64
2023/10/24 07:06:01;;;;;;;8.88;4.15;;;;;14.20;97472.00;;;;5033704;28;20053;-65
2023/10/24 07:08:27;;;;;;;5.78;3.13;;;;;14.20;97476.00;;;;5033231;28;20037;-63
2023/10/24 07:10:54;;;;;;;3.47;2.90;;;;;14.30;97474.00;;;;5033113;28;20103;-63
2023/10/24 07:13:21;;;;;;;5.57;2.97;;;;;14.30;97470.00;;;;5034610;28;20068;-63
2023/10/24 07:15:47;;;;;;;4.80;2.72;;;;;14.40;97472.00;;;;5016212;28;20069;-64
2023/10/24 07:18:15;;;;;;;4.50;2.72;;;;;14.50;97474.00;;;;5033093;28;20136;-64
2023/10/24 07:20:43;;;;;;;4.55;3.20;;;;;14.60;97480.00;;;;5034199;28;20065;-65
2023/10/24 07:23:09;;;;;;;7.00;3.05;;;;;14.60;97493.00;;;;5034104;28;20040;-64
2023/10/24 07:25:36;;;;;;;5.72;3.47;;;;;14.70;97490.00;;;;5033784;28;20045;-63
2023/10/24 07:28:04;;;;;;;4.00;2.83;;;;;14.80;97484.00;;;;5032650;28;20053;-64
2023/10/24 07:30:31;;;;;;;5.88;2.40;;;;;14.80;97481.00;;;;5032512;28;20124;-65
2023/10/24 07:32:58;;;;;;;2.72;2.05;;;;;14.80;97475.00;;;;5033828;28;20548;-64
2023/10/24 07:35:25;;;;;;;5.60;2.60;;;;;14.80;97482.00;;;;5033152;28;20049;-64
2023/10/24 07:37:53;;;;;;;5.30;2.10;;;;;14.80;97475.00;;;;5033762;28;20506;-65
2023/10/24 07:40:20;;;;;;;4.50;2.40;;;;;14.80;97480.00;;;;5034071;28;20041;-66
2023/10/24 07:42:46;;;;;;;12.93;2.65;;;;;14.70;97482.00;;;;5033716;28;20045;-64
2023/10/24 07:45:13;;;;;;;5.38;3.10;;;;;14.80;97472.00;;;;5032835;28;20042;-65
2023/10/24 07:47:40;;;;;;;4.53;2.80;;;;;14.80;97472.00;;;;5033624;28;20042;-65
2023/10/24 07:50:08;;;;;;;8.20;3.58;;;;;14.80;97480.00;;;;5033847;28;20045;-65
2023/10/24 07:52:35;;;;;;;8.85;3.60;;;;;14.80;97493.00;;;;5033389;28;20398;-65
2023/10/24 07:55:02;;;;;;;5.47;3.55;;;;;14.80;97495.00;;;;5032744;28;20041;-65
2023/10/24 07:57:29;;;;;;;8.18;3.72;;;;;14.90;97500.00;;;;5033338;28;20464;-65
2023/10/24 07:59:57;;;;;;;6.22;3.70;;;;;14.90;97495.00;;;;5031956;28;20052;-65
2023/10/24 08:02:23;;;;;;;5.75;3.72;;;;;14.90;97495.00;;;;5032989;28;20411;-64
2023/10/24 08:04:50;;;;;;;6.35;3.67;;;;;14.90;97496.00;;;;5032599;28;20045;-66
2023/10/24 08:07:17;;;;;;;6.03;3.95;;;;;14.90;97497.00;;;;5032919;28;20044;-67
2023/10/24 08:09:43;;;;;;;7.25;3.35;;;;;14.90;97503.00;;;;5032248;28;20136;-66
2023/10/24 08:12:11;;;;;;;5.68;3.30;;;;;14.90;97505.00;;;;5033331;28;20455;-64
2023/10/24 08:14:38;;;;;;;6.88;4.18;;;;;14.90;97514.00;;;;5039815;28;20076;-64
2023/10/24 08:17:05;;;;;;;6.45;3.63;;;;;15.00;97521.00;;;;5040654;28;20053;-65
2023/10/24 08:19:32;;;;;;;6.55;4.25;;;;;15.00;97520.00;;;;5039207;28;20054;-65
2023/10/24 08:21:58;;;;;;;4.85;3.20;;;;;15.00;97521.00;;;;5044874;28;20446;-65
2023/10/24 08:24:25;;;;;;;4.70;3.50;;;;;15.00;97516.00;;;;5042959;28;20045;-65
2023/10/24 08:26:52;;;;;;;8.60;3.75;;;;;15.10;97513.00;;;;5040153;28;20045;-65
2023/10/24 08:29:36;;;;;;;8.38;2.50;;;;;15.10;97519.00;;;;5037166;28;20073;-65
2023/10/24 08:32:03;;;;;;;11.15;5.90;;;;;15.10;97516.00;;;;5035388;28;20117;-64
2023/10/24 08:34:38;;;;;;;6.07;3.10;;;;;15.00;97509.00;;;;5032182;28;20486;-65
2023/10/24 08:37:06;;;;;;;5.10;2.90;;;;;15.00;97513.00;;;;5031903;28;20532;-64
2023/10/24 08:39:32;;;;;;;5.82;2.83;;;;;15.10;97504.00;;;;5031600;28;20056;-65
2023/10/24 08:41:59;;;;;;;5.80;3.10;;;;;15.10;97497.00;;;;5032017;28;20037;-65
2023/10/24 08:44:26;;;;;;;6.35;2.60;;;;;15.10;97495.00;;;;5032542;28;20050;-63
2023/10/24 08:46:53;;;;;;;6.65;3.00;;;;;15.20;97497.00;;;;5031475;28;20185;-65
2023/10/24 08:49:20;;;;;;;4.68;3.65;;;;;15.30;97489.00;;;;5032264;28;20095;-65
2023/10/24 08:51:48;;;;;;;6.38;2.92;;;;;15.30;97489.00;;;;5032284;28;20489;-63
2023/10/24 08:54:14;;;;;;;5.28;3.13;;;;;15.40;97480.00;;;;5030371;28;20045;-65
2023/10/24 08:56:41;;;;;;;5.95;3.40;;;;;15.30;97480.00;;;;5030889;28;20080;-65
2023/10/24 08:59:09;;;;;;;6.45;3.60;;;;;15.20;97468.00;;;;5014388;28;20536;-65
2023/10/24 09:01:42;;;;;;;6.10;3.05;;;;;15.10;97464.00;;;;5031918;28;20048;-64
2023/10/24 09:04:09;;;;;;;8.20;3.55;;;;;15.20;97478.00;;;;5030215;28;20053;-64
2023/10/24 09:06:39;;;;;;;5.65;3.30;;;;;15.30;97478.00;;;;5031851;28;20049;-64
2023/10/24 09:09:06;;;;;;;8.00;4.22;;;;;15.40;97476.00;;;;5032243;28;20144;-64
2023/10/24 09:11:58;;;;;;;8.13;3.75;;;;;15.40;97476.00;;;;5032083;28;20045;-64
2023/10/24 09:14:28;;;;;;;3.85;3.45;;;;;15.50;97470.00;;;;5031081;28;20104;-67
2023/10/24 09:17:15;;;;;;;6.85;3.85;;;;;15.50;97472.00;;;;5031847;28;20107;-65
2023/10/24 09:19:43;;;;;;;5.80;3.28;;;;;15.60;97472.00;;;;5030387;28;20049;-64
2023/10/24 09:22:18;;;;;;;7.85;3.58;;;;;15.50;97466.00;;;;5030804;28;20486;-64
2023/10/24 09:24:45;;;;;;;4.85;2.90;;;;;15.50;97455.00;;;;5031273;28;20049;-66
2023/10/24 09:27:17;;;;;;;4.30;3.22;;;;;15.50;97452.00;;;;5034440;28;20041;-64
2023/10/24 09:29:49;;;;;;;4.10;2.85;;;;;15.50;97462.00;;;;5035693;28;20411;-64
2023/10/24 09:32:16;;;;;;;4.50;2.47;;;;;15.60;97455.00;;;;5035697;28;20041;-64
2023/10/24 09:34:45;;;;;;;4.07;2.58;;;;;15.60;97463.00;;;;5035087;28;20050;-65
2023/10/24 09:37:13;;;;;;;3.95;2.65;;;;;15.60;97465.00;;;;5035534;28;20038;-63
2023/10/24 09:39:56;;;;;;;5.28;3.65;;;;;15.60;97453.00;;;;5034330;28;20045;-64
2023/10/24 09:42:25;;;;;;;5.95;3.53;;;;;15.70;97459.00;;;;5035844;28;20045;-64
2023/10/24 09:45:00;;;;;;;7.22;3.55;;;;;15.70;97448.00;;;;5034772;28;20045;-64
2023/10/24 09:47:28;;;;;;;3.60;3.22;;;;;15.70;97463.00;;;;5034199;28;20457;-64
2023/10/24 09:49:56;;;;;;;5.80;3.53;;;;;15.70;97454.00;;;;5034188;28;20053;-64
2023/10/24 09:52:24;;;;;;;5.15;3.50;;;;;15.70;97446.00;;;;5033732;28;20068;-64
2023/10/24 09:54:51;;;;;;;3.85;3.05;;;;;15.70;97442.00;;;;5033688;28;20056;-64
2023/10/24 09:57:20;;;;;;;4.60;2.95;;;;;15.70;97448.00;;;;5039800;28;20053;-64
2023/10/24 09:59:51;;;;;;;4.35;3.35;;;;;15.60;97443.00;;;;5038865;28;20045;-65
2023/10/24 10:02:20;;;;;;;8.60;2.92;;;;;15.60;97442.00;;;;5037140;28;20120;-64
2023/10/24 10:04:50;;;;;;;4.05;3.25;;;;;15.50;97435.00;;;;5034918;28;20045;-65
2023/10/24 10:07:18;;;;;;;4.95;2.33;;;;;15.50;97434.00;;;;5035043;28;20099;-64
2023/10/24 10:09:46;;;;;;;3.60;2.28;;;;;15.50;97430.00;;;;5035237;28;20123;-65
2023/10/24 10:12:17;;;;;;;3.20;2.20;;;;;15.40;97426.00;;;;5033664;28;20581;-65
2023/10/24 10:15:23;;;;;;;3.03;2.40;;;;;15.50;97427.00;;;;5034439;28;20040;-65
2023/10/24 10:18:36;;;;;;;2.22;1.83;;;;;15.50;97426.00;;;;5035055;28;20124;-65
2023/10/24 10:21:21;;;;;;;2.30;1.98;;;;;15.60;97419.00;;;;5016056;28;20045;-65
2023/10/24 10:24:07;;;;;;;2.05;1.60;;;;;15.70;97414.00;;;;5033092;28;20060;-65
2023/10/24 10:26:47;;;;;;;3.50;1.75;;;;;15.70;97416.00;;;;5033660;28;20111;-65
2023/10/24 10:29:38;;;;;;;2.08;1.48;;;;;15.70;97410.00;;;;5033616;28;20073;-65
2023/10/24 10:32:17;;;;;;;1.65;1.45;;;;;15.80;97409.00;;;;5033410;28;20053;-64
2023/10/24 10:35:04;;;;;;;2.90;1.45;;;;;15.80;97408.00;;;;5033994;28;20064;-64
2023/10/24 10:37:34;;;;;;;1.67;1.58;;;;;15.90;97404.00;;;;5031885;28;20060;-65
2023/10/24 10:40:16;;;;;;;1.95;1.75;;;;;15.90;97405.00;;;;5033247;28;20045;-64
2023/10/24 10:42:50;;;;;;;3.47;1.40;;;;;16.00;97398.00;;;;5033138;28;20092;-64
2023/10/24 10:45:22;;;;;;;1.52;1.42;;;;;16.00;97394.00;;;;5034049;28;20052;-66
2023/10/24 10:47:49;;;;;;;2.58;1.60;;;;;16.20;97392.00;;;;5034209;28;20045;-64
2023/10/24 10:50:23;;;;;;;1.55;1.20;;;;;16.30;97390.00;;;;5033094;28;20088;-63
2023/10/24 10:53:11;;;;;;;3.17;1.73;;;;;16.30;97389.00;;;;5034052;28;20038;-63
2023/10/24 10:55:51;;;;;;;1.80;1.70;;;;;16.40;97397.00;;;;5016335;28;20115;-63
2023/10/24 10:58:23;;;;;;;3.58;1.70;;;;;16.30;97394.00;;;;5032995;28;20525;-64
2023/10/24 11:01:03;;;;;;;1.25;1.15;;;;;16.30;97399.00;;;;5034180;28;20049;-64
2023/10/24 11:03:42;;;;;;;2.00;1.25;;;;;16.20;97396.00;;;;5033406;28;20041;-64
2023/10/24 11:06:17;;;;;;;2.95;0.90;;;;;16.20;97392.00;;;;5034302;28;20503;-65
2023/10/24 11:08:50;;;;;;;1.27;1.17;;;;;16.20;97386.00;;;;5034640;28;20057;-64
2023/10/24 11:11:20;;;;;;;1.85;1.10;;;;;16.40;97388.00;;;;5032985;28;20132;-65
2023/10/24 11:13:48;;;;;;;0.80;0.80;;;;;16.40;97382.00;;;;5033774;28;20091;-65
2023/10/24 11:16:15;;;;;;;4.43;1.33;;;;;16.50;97379.00;;;;5032811;28;20076;-63
2023/10/24 11:19:00;;;;;;;2.25;0.95;;;;;16.40;97376.00;;;;5033962;28;20454;-64
2023/10/24 11:21:27;;;;;;;2.22;1.15;;;;;16.30;97373.00;;;;5033937;28;20132;-64
2023/10/24 11:23:57;;;;;;;1.17;1.08;;;;;16.30;97377.00;;;;5015604;28;20041;-63
2023/10/24 11:26:23;;;;;;;0.90;0.90;;;;;16.20;97365.00;;;;5032615;28;20131;-64
2023/10/24 11:28:51;;;;;;;1.48;1.30;;;;;16.10;97372.00;;;;5016234;28;20143;-65
2023/10/24 11:31:23;;;;;;;1.30;1.10;;;;;16.20;97377.00;;;;5034046;28;20120;-63
2023/10/24 11:33:50;;;;;;;1.38;1.05;;;;;16.10;97366.00;;;;5032143;28;20055;-63
2023/10/24 11:36:16;;;;;;;2.30;1.20;;;;;16.00;97368.00;;;;5032671;28;20475;-65
2023/10/24 11:38:44;;;;;;;1.10;1.10;;;;;16.00;97360.00;;;;5033587;28;20111;-63
2023/10/24 11:41:11;;;;;;;1.65;1.35;;;;;15.90;97368.00;;;;5034097;28;20049;-64
2023/10/24 11:43:38;;;;;;;3.28;1.77;;;;;15.80;97365.00;;;;5031911;28;20037;-63
2023/10/24 11:46:05;;;;;;;1.60;1.40;;;;;15.80;97372.00;;;;5033399;28;20082;-63
2023/10/24 11:48:31;;;;;;;1.85;1.20;;;;;15.70;97361.00;;;;5032496;28;20051;-64
2023/10/24 11:51:02;;;;;;;2.13;1.08;;;;;15.70;97362.00;;;;5034481;28;20061;-64
2023/10/24 11:53:29;;;;;;;2.53;1.35;;;;;15.80;97368.00;;;;5054496;28;20053;-65
2023/10/24 11:55:56;;;;;;;2.03;1.70;;;;;15.80;97367.00;;;;5055813;28;20044;-64
2023/10/24 11:58:30;;;;;;;3.05;1.23;;;;;15.80;97357.00;;;;5055948;28;20064;-65
2023/10/24 12:00:58;;;;;;;3.25;2.55;;;;;15.90;97356.00;;;;5056731;28;20462;-65
2023/10/24 12:03:25;;;;;;;1.50;1.40;;;;;15.90;97358.00;;;;5056576;28;20056;-65
2023/10/24 12:05:54;;;;;;;1.70;1.60;;;;;15.90;97361.00;;;;5056138;28;20030;-65
2023/10/24 12:08:24;;;;;;;2.45;1.77;;;;;15.90;97353.00;;;;5056143;28;20136;-65
2023/10/24 12:10:53;;;;;;;2.10;1.52;;;;;15.90;97346.00;;;;5057357;28;20025;-65
2023/10/24 12:13:21;;;;;;;2.90;1.50;;;;;15.90;97352.00;;;;5056741;28;20098;-65
2023/10/24 12:15:47;;;;;;;2.80;2.28;;;;;15.90;97344.00;;;;5056138;28;20045;-65
2023/10/24 12:18:14;;;;;;;2.78;2.17;;;;;15.90;97343.00;;;;5056572;28;20049;-64
2023/10/24 12:20:41;;;;;;;1.70;1.60;;;;;15.80;97347.00;;;;5056354;28;20049;-65
2023/10/24 12:23:07;;;;;;;2.50;1.90;;;;;15.90;97347.00;;;;5055957;28;20057;-65